Fehn Calais — V2CI3 — position and weather

sailwx.info

Track history (hours):
 
Tides and Currents Weather Stations Pressure Air Temp Water Temp Dewpoint Dewpoint Depression Visibility Wind Speed Wind Dir Waves Ship Positions

Fehn Calais

Last reported at 2014-Nov-23 01:11 UTC. Time now 2014-Nov-23 04:35 UTC.
Position N 41°44' E 003°53'.

Length 82 m; draft 2.8 m.

Type: Cargo ship. MMSI: 305009000.

Date/timePositionNaut miles runAvg speedWind from/ knotsBaromVisibWave heightAir tempDewpointWater temp
2014-Nov-23 01:11N 41°44' E 003°53'24 8.6
2014-Nov-22 22:25N 41°23' E 003°37'9 8.7
2014-Nov-22 21:25N 41°16' E 003°32'9 8.8
2014-Nov-22 20:27N 41°09' E 003°26'8 8.9
2014-Nov-22 19:30N 41°01' E 003°20'9 9.0
2014-Nov-22 18:33N 40°54' E 003°15'10 9.5
2014-Nov-22 17:33N 40°46' E 003°08'9 9.4
2014-Nov-22 16:33N 40°38' E 003°02'9 9.3
2014-Nov-22 15:33N 40°30' E 002°56'9 9.2
2014-Nov-22 14:33N 40°22' E 002°50'9 9.1
2014-Nov-22 13:33N 40°14' E 002°44'9 9.4
2014-Nov-22 12:33N 40°06' E 002°38'10 9.7
2014-Nov-22 11:33N 39°57' E 002°31'10 9.5
2014-Nov-22 10:33N 39°49' E 002°25'10 9.7
2014-Nov-22 09:33N 39°41' E 002°19'10 9.8
2014-Nov-22 08:33N 39°32' E 002°13'10 9.7
2014-Nov-22 07:33N 39°22' E 002°10'9 9.4
2014-Nov-22 06:33N 39°13' E 002°08'9 9.3
2014-Nov-22 05:33N 39°04' E 002°05'9 9.3
2014-Nov-22 04:33N 38°55' E 002°02'9 9.4
2014-Nov-22 03:33N 38°46' E 001°59'10 9.5
2014-Nov-22 02:33N 38°37' E 001°56'9 9.2
2014-Nov-22 01:33N 38°28' E 001°53'9 9.5
2014-Nov-22 00:33N 38°19' E 001°50'  
2014-Nov-19 12:23N 36°30' E 000°42'910.8
2014-Nov-19 11:33N 36°29' E 000°31'284 9.5
2014-Nov-18 05:33N 35°58' W 005°18'  
Track history (hours):
 
Tides and Currents Weather Stations Pressure Air Temp Water Temp Dewpoint Dewpoint Depression Visibility Wind Speed Wind Dir Waves Ship Positions

Fehn Calais

Last reported at 2014-Nov-23 01:11 UTC. Time now 2014-Nov-23 04:35 UTC.
Position N 41°44' E 003°53'.

Length 82 m; draft 2.8 m.

Type: Cargo ship. MMSI: 305009000.

Date/timePositionNaut miles runAvg speedWind from/ knotsBaromVisibWave heightAir tempDewpointWater temp
2014-Nov-23 01:11N 41°44' E 003°53'24 8.6
2014-Nov-22 22:25N 41°23' E 003°37'9 8.7
2014-Nov-22 21:25N 41°16' E 003°32'9 8.8
2014-Nov-22 20:27N 41°09' E 003°26'8 8.9
2014-Nov-22 19:30N 41°01' E 003°20'9 9.0
2014-Nov-22 18:33N 40°54' E 003°15'10 9.5
2014-Nov-22 17:33N 40°46' E 003°08'9 9.4
2014-Nov-22 16:33N 40°38' E 003°02'9 9.3
2014-Nov-22 15:33N 40°30' E 002°56'9 9.2
2014-Nov-22 14:33N 40°22' E 002°50'9 9.1
2014-Nov-22 13:33N 40°14' E 002°44'9 9.4
2014-Nov-22 12:33N 40°06' E 002°38'10 9.7
2014-Nov-22 11:33N 39°57' E 002°31'10 9.5
2014-Nov-22 10:33N 39°49' E 002°25'10 9.7
2014-Nov-22 09:33N 39°41' E 002°19'10 9.8
2014-Nov-22 08:33N 39°32' E 002°13'10 9.7
2014-Nov-22 07:33N 39°22' E 002°10'9 9.4
2014-Nov-22 06:33N 39°13' E 002°08'9 9.3
2014-Nov-22 05:33N 39°04' E 002°05'9 9.3
2014-Nov-22 04:33N 38°55' E 002°02'9 9.4
2014-Nov-22 03:33N 38°46' E 001°59'10 9.5
2014-Nov-22 02:33N 38°37' E 001°56'9 9.2
2014-Nov-22 01:33N 38°28' E 001°53'9 9.5
2014-Nov-22 00:33N 38°19' E 001°50'  
2014-Nov-19 12:23N 36°30' E 000°42'910.8
2014-Nov-19 11:33N 36°29' E 000°31'284 9.5
2014-Nov-18 05:33N 35°58' W 005°18'  

Dump ship's entire track history